
<gpx xmlns="http://www.topografix.com/GPX/1/1" xmlns:gpxx="http://www.garmin.com/xmlschemas/GpxExtensions/v3" xmlns:xsi="http://www.w3.org/2001/XMLSchema-instance" version="1.1" creator="Adze - https://getadze.com/" xsi:schemaLocation="http://www.topografix.com/GPX/1/1 http://www.topografix.com/GPX/1/1/gpx.xsd http://www.garmin.com/xmlschemas/GpxExtensions/v3 http://www.garmin.com/xmlschemas/GpxExtensionsv3.xsd">
    <metadata>
        <name>Untitled Document</name>
        <link href="http://www.garmin.com"></link>
        <time>2018-03-07T07:49:44.764Z</time>
    </metadata>
    <wpt lon="101.604479" lat="14.814110">
        <ele>364.000000</ele>
        <name>Neung Ning</name>
        <cmt>10-MAY-08 8:07:27</cmt>
        <desc>10-MAY-08 8:07:27</desc>
        <sym>Building</sym>
        <extensions>
            <gpxx:WaypointExtension xmlns:gpxx="http://www.garmin.com/xmlschemas/GpxExtensions/v3">
                <gpxx:DisplayMode>SymbolAndName</gpxx:DisplayMode>
            </gpxx:WaypointExtension>
        </extensions>
    </wpt>
    <wpt lon="101.648324" lat="14.804042">
        <time>2008-09-30T14:16:02Z</time>
        <name>September 2008 - Sunday water</name>
        <sym>Drinking Water</sym>
        <extensions>
            <gpxx:WaypointExtension xmlns:gpxx="http://www.garmin.com/xmlschemas/GpxExtensions/v3">
                <gpxx:DisplayMode>SymbolOnly</gpxx:DisplayMode>
            </gpxx:WaypointExtension>
        </extensions>
    </wpt>
    <trk>
        <name>Sunday</name>
        <extensions>
            <gpxx:TrackExtension xmlns:gpxx="http://www.garmin.com/xmlschemas/GpxExtensions/v3">
                <gpxx:DisplayColor>Green</gpxx:DisplayColor>
            </gpxx:TrackExtension>
        </extensions>
        <trkseg>
            <trkpt lon="101.603035" lat="14.813897">
                <ele>365.438355</ele>
                <time>2008-09-27T23:03:20Z</time>
            </trkpt>
            <trkpt lon="101.603950" lat="14.813706">
                <ele>359.189697</ele>
                <time>2008-09-27T23:04:25Z</time>
            </trkpt>
            <trkpt lon="101.604671" lat="14.814088">
                <ele>352.460571</ele>
                <time>2008-09-27T23:04:44Z</time>
            </trkpt>
            <trkpt lon="101.605012" lat="14.814923">
                <ele>345.731323</ele>
                <time>2008-09-27T23:05:03Z</time>
            </trkpt>
            <trkpt lon="101.605426" lat="14.815716">
                <ele>345.731323</ele>
                <time>2008-09-27T23:05:59Z</time>
            </trkpt>
            <trkpt lon="101.606204" lat="14.816142">
                <ele>340.924683</ele>
                <time>2008-09-27T23:06:16Z</time>
            </trkpt>
            <trkpt lon="101.606620" lat="14.816909">
                <ele>333.234131</ele>
                <time>2008-09-27T23:06:35Z</time>
            </trkpt>
            <trkpt lon="101.607505" lat="14.817080">
                <ele>326.504883</ele>
                <time>2008-09-27T23:06:52Z</time>
            </trkpt>
            <trkpt lon="101.607892" lat="14.817894">
                <ele>317.372436</ele>
                <time>2008-09-27T23:07:07Z</time>
            </trkpt>
            <trkpt lon="101.607857" lat="14.818784">
                <ele>311.123779</ele>
                <time>2008-09-27T23:07:21Z</time>
            </trkpt>
            <trkpt lon="101.608214" lat="14.819634">
                <ele>302.952515</ele>
                <time>2008-09-27T23:07:34Z</time>
            </trkpt>
            <trkpt lon="101.608001" lat="14.820555">
                <ele>293.820068</ele>
                <time>2008-09-27T23:07:48Z</time>
            </trkpt>
            <trkpt lon="101.607442" lat="14.821261">
                <ele>284.206909</ele>
                <time>2008-09-27T23:08:04Z</time>
            </trkpt>
            <trkpt lon="101.608296" lat="14.821548">
                <ele>289.974853</ele>
                <time>2008-09-27T23:08:33Z</time>
            </trkpt>
            <trkpt lon="101.609071" lat="14.821948">
                <ele>291.416748</ele>
                <time>2008-09-27T23:08:54Z</time>
            </trkpt>
            <trkpt lon="101.610025" lat="14.822037">
                <ele>291.897461</ele>
                <time>2008-09-27T23:09:15Z</time>
            </trkpt>
            <trkpt lon="101.610992" lat="14.822112">
                <ele>281.803589</ele>
                <time>2008-09-27T23:09:33Z</time>
            </trkpt>
            <trkpt lon="101.611573" lat="14.822527">
                <ele>276.997070</ele>
                <time>2008-09-27T23:09:56Z</time>
            </trkpt>
            <trkpt lon="101.611586" lat="14.823393">
                <ele>273.151856</ele>
                <time>2008-09-27T23:12:17Z</time>
            </trkpt>
            <trkpt lon="101.611830" lat="14.824204">
                <ele>268.825806</ele>
                <time>2008-09-27T23:16:33Z</time>
            </trkpt>
            <trkpt lon="101.611884" lat="14.825019">
                <ele>265.461304</ele>
                <time>2008-09-27T23:24:25Z</time>
            </trkpt>
            <trkpt lon="101.612060" lat="14.825908">
                <ele>262.577148</ele>
                <time>2008-09-27T23:24:50Z</time>
            </trkpt>
            <trkpt lon="101.612577" lat="14.826687">
                <ele>260.654541</ele>
                <time>2008-09-27T23:25:15Z</time>
            </trkpt>
            <trkpt lon="101.613092" lat="14.827467">
                <ele>259.693359</ele>
                <time>2008-09-27T23:25:37Z</time>
            </trkpt>
            <trkpt lon="101.613547" lat="14.828301">
                <ele>258.251343</ele>
                <time>2008-09-27T23:27:03Z</time>
            </trkpt>
            <trkpt lon="101.614044" lat="14.829081">
                <ele>256.328735</ele>
                <time>2008-09-27T23:27:21Z</time>
            </trkpt>
            <trkpt lon="101.614545" lat="14.829864">
                <ele>254.886597</ele>
                <time>2008-09-27T23:27:37Z</time>
            </trkpt>
            <trkpt lon="101.615291" lat="14.830175">
                <ele>257.770752</ele>
                <time>2008-09-27T23:29:48Z</time>
            </trkpt>
            <trkpt lon="101.615894" lat="14.830274">
                <ele>259.212647</ele>
                <time>2008-09-27T23:30:47Z</time>
            </trkpt>
            <trkpt lon="101.614774" lat="14.830137">
                <ele>255.848023</ele>
                <time>2008-09-27T23:31:20Z</time>
            </trkpt>
            <trkpt lon="101.615628" lat="14.830239">
                <ele>258.731934</ele>
                <time>2008-09-27T23:33:18Z</time>
            </trkpt>
            <trkpt lon="101.616284" lat="14.829697">
                <ele>261.135254</ele>
                <time>2008-09-27T23:34:10Z</time>
            </trkpt>
            <trkpt lon="101.616315" lat="14.828655">
                <ele>260.173950</ele>
                <time>2008-09-27T23:34:42Z</time>
            </trkpt>
            <trkpt lon="101.616338" lat="14.827649">
                <ele>260.654541</ele>
                <time>2008-09-27T23:35:24Z</time>
            </trkpt>
            <trkpt lon="101.616451" lat="14.826601">
                <ele>261.615967</ele>
                <time>2008-09-27T23:35:57Z</time>
            </trkpt>
            <trkpt lon="101.617212" lat="14.826301">
                <ele>262.577148</ele>
                <time>2008-09-27T23:36:36Z</time>
            </trkpt>
            <trkpt lon="101.618086" lat="14.826126">
                <ele>264.980591</ele>
                <time>2008-09-27T23:37:04Z</time>
            </trkpt>
            <trkpt lon="101.618143" lat="14.825067">
                <ele>265.461304</ele>
                <time>2008-09-27T23:37:31Z</time>
            </trkpt>
            <trkpt lon="101.618193" lat="14.824010">
                <ele>265.461304</ele>
                <time>2008-09-27T23:38:00Z</time>
            </trkpt>
            <trkpt lon="101.618279" lat="14.822972">
                <ele>266.903198</ele>
                <time>2008-09-27T23:38:32Z</time>
            </trkpt>
            <trkpt lon="101.618514" lat="14.822064">
                <ele>268.345093</ele>
                <time>2008-09-27T23:39:03Z</time>
            </trkpt>
            <trkpt lon="101.619538" lat="14.822216">
                <ele>268.825806</ele>
                <time>2008-09-27T23:39:32Z</time>
            </trkpt>
            <trkpt lon="101.620560" lat="14.822441">
                <ele>269.787109</ele>
                <time>2008-09-27T23:39:55Z</time>
            </trkpt>
            <trkpt lon="101.621582" lat="14.822623">
                <ele>268.825806</ele>
                <time>2008-09-27T23:40:40Z</time>
            </trkpt>
            <trkpt lon="101.622624" lat="14.822826">
                <ele>266.903198</ele>
                <time>2008-09-27T23:40:59Z</time>
            </trkpt>
            <trkpt lon="101.623736" lat="14.823116">
                <ele>264.499878</ele>
                <time>2008-09-27T23:41:14Z</time>
            </trkpt>
            <trkpt lon="101.623533" lat="14.824014">
                <ele>261.615967</ele>
                <time>2008-09-27T23:43:09Z</time>
            </trkpt>
            <trkpt lon="101.623313" lat="14.824989">
                <ele>260.654541</ele>
                <time>2008-09-27T23:43:41Z</time>
            </trkpt>
            <trkpt lon="101.623113" lat="14.825879">
                <ele>260.173950</ele>
                <time>2008-09-27T23:44:05Z</time>
            </trkpt>
            <trkpt lon="101.622903" lat="14.826942">
                <ele>258.731934</ele>
                <time>2008-09-27T23:44:42Z</time>
            </trkpt>
            <trkpt lon="101.622755" lat="14.827966">
                <ele>256.809326</ele>
                <time>2008-09-27T23:45:08Z</time>
            </trkpt>
            <trkpt lon="101.622709" lat="14.828919">
                <ele>256.328735</ele>
                <time>2008-09-27T23:45:29Z</time>
            </trkpt>
            <trkpt lon="101.622664" lat="14.829869">
                <ele>255.367310</ele>
                <time>2008-09-27T23:45:48Z</time>
            </trkpt>
            <trkpt lon="101.622615" lat="14.830870">
                <ele>255.848023</ele>
                <time>2008-09-27T23:46:05Z</time>
            </trkpt>
            <trkpt lon="101.623226" lat="14.831312">
                <ele>254.886597</ele>
                <time>2008-09-27T23:48:48Z</time>
            </trkpt>
            <trkpt lon="101.624184" lat="14.831400">
                <ele>252.483398</ele>
                <time>2008-09-27T23:49:15Z</time>
            </trkpt>
            <trkpt lon="101.625043" lat="14.831522">
                <ele>251.522095</ele>
                <time>2008-09-27T23:49:47Z</time>
            </trkpt>
            <trkpt lon="101.625336" lat="14.831758">
                <ele>252.002808</ele>
                <time>2008-09-27T23:51:10Z</time>
            </trkpt>
            <trkpt lon="101.626288" lat="14.831726">
                <ele>252.963989</ele>
                <time>2008-09-27T23:51:43Z</time>
            </trkpt>
            <trkpt lon="101.627058" lat="14.831991">
                <ele>252.483398</ele>
                <time>2008-09-27T23:52:51Z</time>
            </trkpt>
            <trkpt lon="101.627898" lat="14.832342">
                <ele>250.080200</ele>
                <time>2008-09-27T23:53:54Z</time>
            </trkpt>
            <trkpt lon="101.628552" lat="14.832933">
                <ele>247.676758</ele>
                <time>2008-09-27T23:55:48Z</time>
            </trkpt>
            <trkpt lon="101.629456" lat="14.833051">
                <ele>246.234863</ele>
                <time>2008-09-27T23:57:07Z</time>
            </trkpt>
            <trkpt lon="101.630367" lat="14.832740">
                <ele>245.754150</ele>
                <time>2008-09-27T23:59:44Z</time>
            </trkpt>
            <trkpt lon="101.631250" lat="14.832430">
                <ele>246.234863</ele>
                <time>2008-09-28T00:01:27Z</time>
            </trkpt>
            <trkpt lon="101.631700" lat="14.831993">
                <ele>246.715454</ele>
                <time>2008-09-28T00:02:45Z</time>
            </trkpt>
            <trkpt lon="101.631273" lat="14.831526">
                <ele>247.676758</ele>
                <time>2008-09-28T00:03:54Z</time>
            </trkpt>
            <trkpt lon="101.631224" lat="14.830619">
                <ele>249.118774</ele>
                <time>2008-09-28T00:04:26Z</time>
            </trkpt>
            <trkpt lon="101.631112" lat="14.829708">
                <ele>251.041382</ele>
                <time>2008-09-28T00:05:04Z</time>
            </trkpt>
            <trkpt lon="101.631077" lat="14.828816">
                <ele>252.483398</ele>
                <time>2008-09-28T00:05:41Z</time>
            </trkpt>
            <trkpt lon="101.631017" lat="14.827921">
                <ele>252.963989</ele>
                <time>2008-09-28T00:06:11Z</time>
            </trkpt>
            <trkpt lon="101.630850" lat="14.827007">
                <ele>255.367310</ele>
                <time>2008-09-28T00:06:44Z</time>
            </trkpt>
            <trkpt lon="101.630264" lat="14.826519">
                <ele>256.328735</ele>
                <time>2008-09-28T00:07:19Z</time>
            </trkpt>
            <trkpt lon="101.629861" lat="14.825963">
                <ele>258.251343</ele>
                <time>2008-09-28T00:08:18Z</time>
            </trkpt>
            <trkpt lon="101.630816" lat="14.826014">
                <ele>256.328735</ele>
                <time>2008-09-28T00:11:08Z</time>
            </trkpt>
            <trkpt lon="101.631756" lat="14.826187">
                <ele>253.925415</ele>
                <time>2008-09-28T00:11:33Z</time>
            </trkpt>
            <trkpt lon="101.632494" lat="14.826516">
                <ele>252.002808</ele>
                <time>2008-09-28T00:12:37Z</time>
            </trkpt>
            <trkpt lon="101.633417" lat="14.826491">
                <ele>249.599487</ele>
                <time>2008-09-28T00:13:01Z</time>
            </trkpt>
            <trkpt lon="101.634355" lat="14.826454">
                <ele>248.638184</ele>
                <time>2008-09-28T00:13:24Z</time>
            </trkpt>
            <trkpt lon="101.635265" lat="14.826345">
                <ele>249.599487</ele>
                <time>2008-09-28T00:13:50Z</time>
            </trkpt>
            <trkpt lon="101.636154" lat="14.826106">
                <ele>251.041382</ele>
                <time>2008-09-28T00:15:13Z</time>
            </trkpt>
            <trkpt lon="101.636518" lat="14.826959">
                <ele>249.599487</ele>
                <time>2008-09-28T00:15:38Z</time>
            </trkpt>
            <trkpt lon="101.636900" lat="14.827833">
                <ele>249.118774</ele>
                <time>2008-09-28T00:16:00Z</time>
            </trkpt>
            <trkpt lon="101.637351" lat="14.828641">
                <ele>247.196045</ele>
                <time>2008-09-28T00:16:18Z</time>
            </trkpt>
            <trkpt lon="101.638042" lat="14.829201">
                <ele>248.157593</ele>
                <time>2008-09-28T00:16:39Z</time>
            </trkpt>
            <trkpt lon="101.638835" lat="14.829681">
                <ele>248.157593</ele>
                <time>2008-09-28T00:17:01Z</time>
            </trkpt>
            <trkpt lon="101.639394" lat="14.830415">
                <ele>248.157593</ele>
                <time>2008-09-28T00:17:23Z</time>
            </trkpt>
            <trkpt lon="101.639903" lat="14.831164">
                <ele>249.599487</ele>
                <time>2008-09-28T00:17:53Z</time>
            </trkpt>
            <trkpt lon="101.640346" lat="14.831967">
                <ele>251.522095</ele>
                <time>2008-09-28T00:18:16Z</time>
            </trkpt>
            <trkpt lon="101.641219" lat="14.831968">
                <ele>253.444702</ele>
                <time>2008-09-28T00:20:20Z</time>
            </trkpt>
            <trkpt lon="101.642119" lat="14.831791">
                <ele>254.886597</ele>
                <time>2008-09-28T00:20:50Z</time>
            </trkpt>
            <trkpt lon="101.642817" lat="14.831179">
                <ele>254.406006</ele>
                <time>2008-09-28T00:21:21Z</time>
            </trkpt>
            <trkpt lon="101.643292" lat="14.830381">
                <ele>253.444702</ele>
                <time>2008-09-28T00:21:56Z</time>
            </trkpt>
            <trkpt lon="101.643706" lat="14.829484">
                <ele>251.522095</ele>
                <time>2008-09-28T00:22:33Z</time>
            </trkpt>
            <trkpt lon="101.643700" lat="14.828817">
                <ele>250.560791</ele>
                <time>2008-09-28T00:23:31Z</time>
            </trkpt>
            <trkpt lon="101.644221" lat="14.828514">
                <ele>250.080200</ele>
                <time>2008-09-28T00:27:35Z</time>
            </trkpt>
            <trkpt lon="101.644868" lat="14.828700">
                <ele>251.041382</ele>
                <time>2008-09-28T00:28:41Z</time>
            </trkpt>
            <trkpt lon="101.645192" lat="14.828370">
                <ele>252.002808</ele>
                <time>2008-09-28T00:29:34Z</time>
            </trkpt>
            <trkpt lon="101.646174" lat="14.828285">
                <ele>253.925415</ele>
                <time>2008-09-28T00:30:12Z</time>
            </trkpt>
            <trkpt lon="101.647134" lat="14.828461">
                <ele>256.809326</ele>
                <time>2008-09-28T00:30:40Z</time>
            </trkpt>
            <trkpt lon="101.648094" lat="14.828610">
                <ele>259.693359</ele>
                <time>2008-09-28T00:31:10Z</time>
            </trkpt>
            <trkpt lon="101.648711" lat="14.829306">
                <ele>260.654541</ele>
                <time>2008-09-28T00:31:33Z</time>
            </trkpt>
            <trkpt lon="101.649366" lat="14.829956">
                <ele>261.615967</ele>
                <time>2008-09-28T00:31:59Z</time>
            </trkpt>
            <trkpt lon="101.650016" lat="14.830627">
                <ele>261.135254</ele>
                <time>2008-09-28T00:32:19Z</time>
            </trkpt>
            <trkpt lon="101.650896" lat="14.830876">
                <ele>260.173950</ele>
                <time>2008-09-28T00:32:40Z</time>
            </trkpt>
            <trkpt lon="101.651802" lat="14.831132">
                <ele>258.251343</ele>
                <time>2008-09-28T00:33:00Z</time>
            </trkpt>
            <trkpt lon="101.652490" lat="14.830852">
                <ele>258.251343</ele>
                <time>2008-09-28T00:33:24Z</time>
            </trkpt>
            <trkpt lon="101.652498" lat="14.829973">
                <ele>261.135254</ele>
                <time>2008-09-28T00:34:53Z</time>
            </trkpt>
            <trkpt lon="101.652341" lat="14.829101">
                <ele>263.538574</ele>
                <time>2008-09-28T00:35:20Z</time>
            </trkpt>
            <trkpt lon="101.653213" lat="14.828654">
                <ele>263.057861</ele>
                <time>2008-09-28T00:35:56Z</time>
            </trkpt>
            <trkpt lon="101.654047" lat="14.828242">
                <ele>264.980591</ele>
                <time>2008-09-28T00:36:22Z</time>
            </trkpt>
            <trkpt lon="101.654910" lat="14.827850">
                <ele>268.345093</ele>
                <time>2008-09-28T00:36:51Z</time>
            </trkpt>
            <trkpt lon="101.655693" lat="14.827380">
                <ele>270.748413</ele>
                <time>2008-09-28T00:37:18Z</time>
            </trkpt>
            <trkpt lon="101.656443" lat="14.826830">
                <ele>272.190430</ele>
                <time>2008-09-28T00:37:46Z</time>
            </trkpt>
            <trkpt lon="101.656543" lat="14.827171">
                <ele>273.632446</ele>
                <time>2008-09-28T00:41:03Z</time>
            </trkpt>
            <trkpt lon="101.656610" lat="14.827311">
                <ele>274.113037</ele>
                <time>2008-09-28T00:43:12Z</time>
            </trkpt>
            <trkpt lon="101.657439" lat="14.827417">
                <ele>278.438965</ele>
                <time>2008-09-28T00:46:54Z</time>
            </trkpt>
            <trkpt lon="101.657622" lat="14.827614">
                <ele>279.400269</ele>
                <time>2008-09-28T00:48:53Z</time>
            </trkpt>
            <trkpt lon="101.657258" lat="14.827371">
                <ele>276.997070</ele>
                <time>2008-09-28T00:50:50Z</time>
            </trkpt>
            <trkpt lon="101.656901" lat="14.827076">
                <ele>274.113037</ele>
                <time>2008-09-28T00:51:37Z</time>
            </trkpt>
            <trkpt lon="101.656706" lat="14.826284">
                <ele>269.306519</ele>
                <time>2008-09-28T00:51:59Z</time>
            </trkpt>
            <trkpt lon="101.657088" lat="14.826101">
                <ele>270.748413</ele>
                <time>2008-09-28T00:54:14Z</time>
            </trkpt>
            <trkpt lon="101.658274" lat="14.826074">
                <ele>276.997070</ele>
                <time>2008-09-28T00:58:20Z</time>
            </trkpt>
            <trkpt lon="101.659216" lat="14.826268">
                <ele>280.361694</ele>
                <time>2008-09-28T00:59:50Z</time>
            </trkpt>
            <trkpt lon="101.659548" lat="14.826942">
                <ele>284.687622</ele>
                <time>2008-09-28T01:00:40Z</time>
            </trkpt>
            <trkpt lon="101.660512" lat="14.826898">
                <ele>283.726196</ele>
                <time>2008-09-28T01:01:08Z</time>
            </trkpt>
            <trkpt lon="101.661453" lat="14.826832">
                <ele>280.361694</ele>
                <time>2008-09-28T01:01:30Z</time>
            </trkpt>
            <trkpt lon="101.662385" lat="14.826427">
                <ele>276.516357</ele>
                <time>2008-09-28T01:02:00Z</time>
            </trkpt>
            <trkpt lon="101.663238" lat="14.825752">
                <ele>270.748413</ele>
                <time>2008-09-28T01:02:33Z</time>
            </trkpt>
            <trkpt lon="101.663292" lat="14.824763">
                <ele>266.903198</ele>
                <time>2008-09-28T01:03:00Z</time>
            </trkpt>
            <trkpt lon="101.663088" lat="14.824004">
                <ele>265.461304</ele>
                <time>2008-09-28T01:03:49Z</time>
            </trkpt>
            <trkpt lon="101.663264" lat="14.823085">
                <ele>268.345093</ele>
                <time>2008-09-28T01:04:23Z</time>
            </trkpt>
            <trkpt lon="101.663190" lat="14.822105">
                <ele>272.671143</ele>
                <time>2008-09-28T01:05:03Z</time>
            </trkpt>
            <trkpt lon="101.663223" lat="14.821192">
                <ele>279.880859</ele>
                <time>2008-09-28T01:05:58Z</time>
            </trkpt>
            <trkpt lon="101.662809" lat="14.820582">
                <ele>284.206909</ele>
                <time>2008-09-28T01:06:52Z</time>
            </trkpt>
            <trkpt lon="101.661898" lat="14.820673">
                <ele>282.284302</ele>
                <time>2008-09-28T01:07:19Z</time>
            </trkpt>
            <trkpt lon="101.660983" lat="14.820717">
                <ele>283.245606</ele>
                <time>2008-09-28T01:07:49Z</time>
            </trkpt>
            <trkpt lon="101.660029" lat="14.820634">
                <ele>286.129517</ele>
                <time>2008-09-28T01:08:20Z</time>
            </trkpt>
            <trkpt lon="101.659136" lat="14.820444">
                <ele>292.858765</ele>
                <time>2008-09-28T01:08:51Z</time>
            </trkpt>
            <trkpt lon="101.658295" lat="14.820452">
                <ele>290.936157</ele>
                <time>2008-09-28T01:09:40Z</time>
            </trkpt>
            <trkpt lon="101.657431" lat="14.820394">
                <ele>289.013550</ele>
                <time>2008-09-28T01:10:16Z</time>
            </trkpt>
            <trkpt lon="101.657356" lat="14.821406">
                <ele>280.842407</ele>
                <time>2008-09-28T01:10:39Z</time>
            </trkpt>
            <trkpt lon="101.657233" lat="14.822373">
                <ele>276.035644</ele>
                <time>2008-09-28T01:11:01Z</time>
            </trkpt>
            <trkpt lon="101.657081" lat="14.823284">
                <ele>272.190430</ele>
                <time>2008-09-28T01:11:24Z</time>
            </trkpt>
            <trkpt lon="101.656157" lat="14.823200">
                <ele>270.267700</ele>
                <time>2008-09-28T01:11:50Z</time>
            </trkpt>
            <trkpt lon="101.655255" lat="14.823187">
                <ele>267.864502</ele>
                <time>2008-09-28T01:12:13Z</time>
            </trkpt>
            <trkpt lon="101.654913" lat="14.824053">
                <ele>263.538574</ele>
                <time>2008-09-28T01:12:35Z</time>
            </trkpt>
            <trkpt lon="101.654600" lat="14.824886">
                <ele>263.057861</ele>
                <time>2008-09-28T01:13:01Z</time>
            </trkpt>
            <trkpt lon="101.653889" lat="14.824698">
                <ele>261.615967</ele>
                <time>2008-09-28T01:14:16Z</time>
            </trkpt>
            <trkpt lon="101.653906" lat="14.823748">
                <ele>262.096558</ele>
                <time>2008-09-28T01:14:43Z</time>
            </trkpt>
            <trkpt lon="101.653913" lat="14.822860">
                <ele>264.499878</ele>
                <time>2008-09-28T01:15:20Z</time>
            </trkpt>
            <trkpt lon="101.654027" lat="14.821953">
                <ele>266.903198</ele>
                <time>2008-09-28T01:15:53Z</time>
            </trkpt>
            <trkpt lon="101.654252" lat="14.821063">
                <ele>271.709717</ele>
                <time>2008-09-28T01:16:18Z</time>
            </trkpt>
            <trkpt lon="101.654494" lat="14.820179">
                <ele>277.477661</ele>
                <time>2008-09-28T01:16:46Z</time>
            </trkpt>
            <trkpt lon="101.654250" lat="14.820277">
                <ele>275.074463</ele>
                <time>2008-09-28T01:18:48Z</time>
            </trkpt>
            <trkpt lon="101.654259" lat="14.820992">
                <ele>270.267700</ele>
                <time>2008-09-28T01:19:45Z</time>
            </trkpt>
            <trkpt lon="101.654022" lat="14.821939">
                <ele>264.980591</ele>
                <time>2008-09-28T01:20:00Z</time>
            </trkpt>
            <trkpt lon="101.653897" lat="14.822862">
                <ele>263.057861</ele>
                <time>2008-09-28T01:20:17Z</time>
            </trkpt>
            <trkpt lon="101.653899" lat="14.823788">
                <ele>260.654541</ele>
                <time>2008-09-28T01:20:41Z</time>
            </trkpt>
            <trkpt lon="101.653892" lat="14.824714">
                <ele>260.173950</ele>
                <time>2008-09-28T01:21:06Z</time>
            </trkpt>
            <trkpt lon="101.653898" lat="14.823828">
                <ele>261.135254</ele>
                <time>2008-09-28T01:22:09Z</time>
            </trkpt>
            <trkpt lon="101.653891" lat="14.822912">
                <ele>262.577148</ele>
                <time>2008-09-28T01:22:31Z</time>
            </trkpt>
            <trkpt lon="101.654017" lat="14.821992">
                <ele>265.461304</ele>
                <time>2008-09-28T01:22:59Z</time>
            </trkpt>
            <trkpt lon="101.654237" lat="14.821110">
                <ele>270.748413</ele>
                <time>2008-09-28T01:23:30Z</time>
            </trkpt>
            <trkpt lon="101.653339" lat="14.821149">
                <ele>265.941894</ele>
                <time>2008-09-28T01:25:44Z</time>
            </trkpt>
            <trkpt lon="101.652452" lat="14.821097">
                <ele>264.499878</ele>
                <time>2008-09-28T01:27:12Z</time>
            </trkpt>
            <trkpt lon="101.652494" lat="14.820157">
                <ele>267.383911</ele>
                <time>2008-09-28T01:28:15Z</time>
            </trkpt>
            <trkpt lon="101.652195" lat="14.819872">
                <ele>265.941894</ele>
                <time>2008-09-28T01:31:36Z</time>
            </trkpt>
            <trkpt lon="101.651510" lat="14.819731">
                <ele>263.538574</ele>
                <time>2008-09-28T01:38:33Z</time>
            </trkpt>
            <trkpt lon="101.650963" lat="14.819328">
                <ele>263.057861</ele>
                <time>2008-09-28T01:42:14Z</time>
            </trkpt>
            <trkpt lon="101.650054" lat="14.819581">
                <ele>261.615967</ele>
                <time>2008-09-28T01:42:31Z</time>
            </trkpt>
            <trkpt lon="101.649120" lat="14.819849">
                <ele>258.731934</ele>
                <time>2008-09-28T01:42:48Z</time>
            </trkpt>
            <trkpt lon="101.648690" lat="14.819286">
                <ele>261.135254</ele>
                <time>2008-09-28T01:45:52Z</time>
            </trkpt>
            <trkpt lon="101.648528" lat="14.818358">
                <ele>261.135254</ele>
                <time>2008-09-28T01:46:10Z</time>
            </trkpt>
            <trkpt lon="101.648274" lat="14.817482">
                <ele>260.654541</ele>
                <time>2008-09-28T01:46:24Z</time>
            </trkpt>
            <trkpt lon="101.647969" lat="14.816568">
                <ele>260.654541</ele>
                <time>2008-09-28T01:46:39Z</time>
            </trkpt>
            <trkpt lon="101.647803" lat="14.815647">
                <ele>262.096558</ele>
                <time>2008-09-28T01:49:50Z</time>
            </trkpt>
            <trkpt lon="101.647842" lat="14.814696">
                <ele>261.615967</ele>
                <time>2008-09-28T01:50:16Z</time>
            </trkpt>
            <trkpt lon="101.648022" lat="14.813782">
                <ele>262.096558</ele>
                <time>2008-09-28T01:50:36Z</time>
            </trkpt>
            <trkpt lon="101.648306" lat="14.812887">
                <ele>262.577148</ele>
                <time>2008-09-28T01:50:56Z</time>
            </trkpt>
            <trkpt lon="101.648663" lat="14.812031">
                <ele>263.057861</ele>
                <time>2008-09-28T01:51:13Z</time>
            </trkpt>
            <trkpt lon="101.649015" lat="14.811187">
                <ele>264.019287</ele>
                <time>2008-09-28T01:51:31Z</time>
            </trkpt>
            <trkpt lon="101.649323" lat="14.810319">
                <ele>267.383911</ele>
                <time>2008-09-28T01:51:51Z</time>
            </trkpt>
            <trkpt lon="101.649628" lat="14.809455">
                <ele>269.306519</ele>
                <time>2008-09-28T01:52:11Z</time>
            </trkpt>
            <trkpt lon="101.649893" lat="14.808562">
                <ele>269.306519</ele>
                <time>2008-09-28T01:52:29Z</time>
            </trkpt>
            <trkpt lon="101.649761" lat="14.807634">
                <ele>269.306519</ele>
                <time>2008-09-28T01:52:47Z</time>
            </trkpt>
            <trkpt lon="101.649323" lat="14.806816">
                <ele>267.864502</ele>
                <time>2008-09-28T01:53:04Z</time>
            </trkpt>
            <trkpt lon="101.648898" lat="14.805965">
                <ele>266.422485</ele>
                <time>2008-09-28T01:53:19Z</time>
            </trkpt>
            <trkpt lon="101.648947" lat="14.805056">
                <ele>262.096558</ele>
                <time>2008-09-28T01:53:32Z</time>
            </trkpt>
            <trkpt lon="101.649096" lat="14.804157">
                <ele>261.135254</ele>
                <time>2008-09-28T01:54:05Z</time>
            </trkpt>
            <trkpt lon="101.649090" lat="14.803206">
                <ele>260.654541</ele>
                <time>2008-09-28T01:54:20Z</time>
            </trkpt>
            <trkpt lon="101.649122" lat="14.802765">
                <ele>259.693359</ele>
                <time>2008-09-28T02:24:04Z</time>
            </trkpt>
            <trkpt lon="101.649086" lat="14.803702">
                <ele>257.770752</ele>
                <time>2008-09-28T02:24:21Z</time>
            </trkpt>
            <trkpt lon="101.649029" lat="14.804618">
                <ele>259.693359</ele>
                <time>2008-09-28T02:24:42Z</time>
            </trkpt>
            <trkpt lon="101.648858" lat="14.805565">
                <ele>262.096558</ele>
                <time>2008-09-28T02:25:06Z</time>
            </trkpt>
            <trkpt lon="101.649115" lat="14.806479">
                <ele>264.019287</ele>
                <time>2008-09-28T02:25:25Z</time>
            </trkpt>
            <trkpt lon="101.649599" lat="14.807265">
                <ele>264.499878</ele>
                <time>2008-09-28T02:25:40Z</time>
            </trkpt>
            <trkpt lon="101.649901" lat="14.808136">
                <ele>265.461304</ele>
                <time>2008-09-28T02:25:55Z</time>
            </trkpt>
            <trkpt lon="101.649780" lat="14.809023">
                <ele>264.499878</ele>
                <time>2008-09-28T02:26:10Z</time>
            </trkpt>
            <trkpt lon="101.649473" lat="14.809893">
                <ele>263.057861</ele>
                <time>2008-09-28T02:26:24Z</time>
            </trkpt>
            <trkpt lon="101.649157" lat="14.810788">
                <ele>259.693359</ele>
                <time>2008-09-28T02:26:36Z</time>
            </trkpt>
            <trkpt lon="101.648804" lat="14.811693">
                <ele>256.809326</ele>
                <time>2008-09-28T02:26:47Z</time>
            </trkpt>
            <trkpt lon="101.648425" lat="14.812603">
                <ele>256.809326</ele>
                <time>2008-09-28T02:26:59Z</time>
            </trkpt>
            <trkpt lon="101.648100" lat="14.813484">
                <ele>256.809326</ele>
                <time>2008-09-28T02:27:11Z</time>
            </trkpt>
            <trkpt lon="101.647866" lat="14.814406">
                <ele>256.328735</ele>
                <time>2008-09-28T02:27:23Z</time>
            </trkpt>
            <trkpt lon="101.647792" lat="14.815326">
                <ele>256.328735</ele>
                <time>2008-09-28T02:27:35Z</time>
            </trkpt>
            <trkpt lon="101.647425" lat="14.815980">
                <ele>257.770752</ele>
                <time>2008-09-28T02:27:56Z</time>
            </trkpt>
            <trkpt lon="101.646494" lat="14.815853">
                <ele>254.406006</ele>
                <time>2008-09-28T02:28:21Z</time>
            </trkpt>
            <trkpt lon="101.645573" lat="14.815567">
                <ele>252.963989</ele>
                <time>2008-09-28T02:28:39Z</time>
            </trkpt>
            <trkpt lon="101.644615" lat="14.815470">
                <ele>250.080200</ele>
                <time>2008-09-28T02:28:56Z</time>
            </trkpt>
            <trkpt lon="101.644096" lat="14.814863">
                <ele>250.560791</ele>
                <time>2008-09-28T02:29:13Z</time>
            </trkpt>
            <trkpt lon="101.643139" lat="14.814782">
                <ele>250.080200</ele>
                <time>2008-09-28T02:29:31Z</time>
            </trkpt>
            <trkpt lon="101.642722" lat="14.814931">
                <ele>251.522095</ele>
                <time>2008-09-28T02:30:35Z</time>
            </trkpt>
            <trkpt lon="101.642408" lat="14.815613">
                <ele>249.118774</ele>
                <time>2008-09-28T02:30:57Z</time>
            </trkpt>
            <trkpt lon="101.641504" lat="14.815609">
                <ele>249.118774</ele>
                <time>2008-09-28T02:31:24Z</time>
            </trkpt>
            <trkpt lon="101.640598" lat="14.815441">
                <ele>250.080200</ele>
                <time>2008-09-28T02:31:46Z</time>
            </trkpt>
            <trkpt lon="101.639675" lat="14.815262">
                <ele>250.560791</ele>
                <time>2008-09-28T02:32:55Z</time>
            </trkpt>
            <trkpt lon="101.638737" lat="14.815081">
                <ele>251.522095</ele>
                <time>2008-09-28T02:33:13Z</time>
            </trkpt>
            <trkpt lon="101.638153" lat="14.815621">
                <ele>251.522095</ele>
                <time>2008-09-28T02:33:56Z</time>
            </trkpt>
            <trkpt lon="101.637486" lat="14.815429">
                <ele>252.963989</ele>
                <time>2008-09-28T02:34:22Z</time>
            </trkpt>
            <trkpt lon="101.636747" lat="14.814865">
                <ele>254.406006</ele>
                <time>2008-09-28T02:34:49Z</time>
            </trkpt>
            <trkpt lon="101.635876" lat="14.814518">
                <ele>256.809326</ele>
                <time>2008-09-28T02:35:17Z</time>
            </trkpt>
            <trkpt lon="101.635283" lat="14.813826">
                <ele>257.770752</ele>
                <time>2008-09-28T02:35:42Z</time>
            </trkpt>
            <trkpt lon="101.634933" lat="14.812954">
                <ele>259.212647</ele>
                <time>2008-09-28T02:36:08Z</time>
            </trkpt>
            <trkpt lon="101.634587" lat="14.812098">
                <ele>260.654541</ele>
                <time>2008-09-28T02:36:32Z</time>
            </trkpt>
            <trkpt lon="101.634298" lat="14.811202">
                <ele>260.173950</ele>
                <time>2008-09-28T02:36:57Z</time>
            </trkpt>
            <trkpt lon="101.634102" lat="14.810284">
                <ele>260.654541</ele>
                <time>2008-09-28T02:37:18Z</time>
            </trkpt>
            <trkpt lon="101.634141" lat="14.809380">
                <ele>261.615967</ele>
                <time>2008-09-28T02:37:50Z</time>
            </trkpt>
            <trkpt lon="101.634213" lat="14.808493">
                <ele>262.577148</ele>
                <time>2008-09-28T02:38:14Z</time>
            </trkpt>
            <trkpt lon="101.633468" lat="14.807970">
                <ele>264.980591</ele>
                <time>2008-09-28T02:38:38Z</time>
            </trkpt>
            <trkpt lon="101.632855" lat="14.807292">
                <ele>266.903198</ele>
                <time>2008-09-28T02:39:03Z</time>
            </trkpt>
            <trkpt lon="101.632277" lat="14.807245">
                <ele>269.787109</ele>
                <time>2008-09-28T02:40:18Z</time>
            </trkpt>
            <trkpt lon="101.631911" lat="14.808084">
                <ele>270.748413</ele>
                <time>2008-09-28T02:40:44Z</time>
            </trkpt>
            <trkpt lon="101.631446" lat="14.808886">
                <ele>271.709717</ele>
                <time>2008-09-28T02:41:12Z</time>
            </trkpt>
            <trkpt lon="101.631168" lat="14.809777">
                <ele>270.748413</ele>
                <time>2008-09-28T02:41:39Z</time>
            </trkpt>
            <trkpt lon="101.630872" lat="14.810625">
                <ele>270.748413</ele>
                <time>2008-09-28T02:42:02Z</time>
            </trkpt>
            <trkpt lon="101.630717" lat="14.811569">
                <ele>269.787109</ele>
                <time>2008-09-28T02:42:39Z</time>
            </trkpt>
            <trkpt lon="101.630524" lat="14.812484">
                <ele>267.383911</ele>
                <time>2008-09-28T02:43:03Z</time>
            </trkpt>
            <trkpt lon="101.630305" lat="14.813364">
                <ele>264.019287</ele>
                <time>2008-09-28T02:43:26Z</time>
            </trkpt>
            <trkpt lon="101.630078" lat="14.814247">
                <ele>260.654541</ele>
                <time>2008-09-28T02:43:47Z</time>
            </trkpt>
            <trkpt lon="101.629654" lat="14.815087">
                <ele>259.693359</ele>
                <time>2008-09-28T02:44:09Z</time>
            </trkpt>
            <trkpt lon="101.629419" lat="14.815142">
                <ele>259.693359</ele>
                <time>2008-09-28T02:45:11Z</time>
            </trkpt>
            <trkpt lon="101.628501" lat="14.815144">
                <ele>261.135254</ele>
                <time>2008-09-28T02:45:42Z</time>
            </trkpt>
            <trkpt lon="101.627699" lat="14.815347">
                <ele>261.135254</ele>
                <time>2008-09-28T02:46:45Z</time>
            </trkpt>
            <trkpt lon="101.626699" lat="14.815401">
                <ele>261.135254</ele>
                <time>2008-09-28T02:47:05Z</time>
            </trkpt>
            <trkpt lon="101.626057" lat="14.815819">
                <ele>263.538574</ele>
                <time>2008-09-28T02:48:01Z</time>
            </trkpt>
            <trkpt lon="101.625170" lat="14.815434">
                <ele>266.422485</ele>
                <time>2008-09-28T02:48:30Z</time>
            </trkpt>
            <trkpt lon="101.624288" lat="14.815033">
                <ele>267.383911</ele>
                <time>2008-09-28T02:48:52Z</time>
            </trkpt>
            <trkpt lon="101.623415" lat="14.814752">
                <ele>267.383911</ele>
                <time>2008-09-28T02:49:19Z</time>
            </trkpt>
            <trkpt lon="101.622497" lat="14.814719">
                <ele>268.345093</ele>
                <time>2008-09-28T02:49:41Z</time>
            </trkpt>
            <trkpt lon="101.621559" lat="14.814702">
                <ele>267.383911</ele>
                <time>2008-09-28T02:50:01Z</time>
            </trkpt>
            <trkpt lon="101.620654" lat="14.814430">
                <ele>266.422485</ele>
                <time>2008-09-28T02:50:19Z</time>
            </trkpt>
            <trkpt lon="101.619740" lat="14.814169">
                <ele>267.864502</ele>
                <time>2008-09-28T02:50:39Z</time>
            </trkpt>
            <trkpt lon="101.618793" lat="14.814134">
                <ele>270.267700</ele>
                <time>2008-09-28T02:51:06Z</time>
            </trkpt>
            <trkpt lon="101.617867" lat="14.814094">
                <ele>274.113037</ele>
                <time>2008-09-28T02:51:31Z</time>
            </trkpt>
            <trkpt lon="101.616929" lat="14.814134">
                <ele>278.438965</ele>
                <time>2008-09-28T02:52:13Z</time>
            </trkpt>
            <trkpt lon="101.616256" lat="14.813773">
                <ele>282.284302</ele>
                <time>2008-09-28T02:52:52Z</time>
            </trkpt>
            <trkpt lon="101.616236" lat="14.812793">
                <ele>286.610230</ele>
                <time>2008-09-28T02:53:26Z</time>
            </trkpt>
            <trkpt lon="101.616231" lat="14.812985">
                <ele>286.129517</ele>
                <time>2008-09-28T02:54:41Z</time>
            </trkpt>
            <trkpt lon="101.616181" lat="14.813888">
                <ele>282.284302</ele>
                <time>2008-09-28T02:55:08Z</time>
            </trkpt>
            <trkpt lon="101.617041" lat="14.814167">
                <ele>278.438965</ele>
                <time>2008-09-28T02:55:35Z</time>
            </trkpt>
            <trkpt lon="101.616209" lat="14.813948">
                <ele>281.803589</ele>
                <time>2008-09-28T02:56:48Z</time>
            </trkpt>
            <trkpt lon="101.616256" lat="14.812954">
                <ele>286.129517</ele>
                <time>2008-09-28T03:00:32Z</time>
            </trkpt>
            <trkpt lon="101.616459" lat="14.812082">
                <ele>289.974853</ele>
                <time>2008-09-28T03:01:41Z</time>
            </trkpt>
            <trkpt lon="101.616810" lat="14.811527">
                <ele>294.781372</ele>
                <time>2008-09-28T03:03:15Z</time>
            </trkpt>
            <trkpt lon="101.616290" lat="14.812303">
                <ele>289.013550</ele>
                <time>2008-09-28T03:03:41Z</time>
            </trkpt>
            <trkpt lon="101.616288" lat="14.813168">
                <ele>285.168213</ele>
                <time>2008-09-28T03:04:01Z</time>
            </trkpt>
            <trkpt lon="101.615972" lat="14.813853">
                <ele>283.245606</ele>
                <time>2008-09-28T03:05:15Z</time>
            </trkpt>
            <trkpt lon="101.615182" lat="14.814179">
                <ele>283.245606</ele>
                <time>2008-09-28T03:06:50Z</time>
            </trkpt>
            <trkpt lon="101.614270" lat="14.814496">
                <ele>277.477661</ele>
                <time>2008-09-28T03:07:35Z</time>
            </trkpt>
            <trkpt lon="101.613196" lat="14.814066">
                <ele>280.361694</ele>
                <time>2008-09-28T03:08:45Z</time>
            </trkpt>
            <trkpt lon="101.612835" lat="14.814162">
                <ele>283.245606</ele>
                <time>2008-09-28T03:12:16Z</time>
            </trkpt>
            <trkpt lon="101.613747" lat="14.814543">
                <ele>279.400269</ele>
                <time>2008-09-28T03:12:58Z</time>
            </trkpt>
            <trkpt lon="101.614541" lat="14.815254">
                <ele>278.438965</ele>
                <time>2008-09-28T03:13:33Z</time>
            </trkpt>
            <trkpt lon="101.615293" lat="14.815893">
                <ele>271.709717</ele>
                <time>2008-09-28T03:14:06Z</time>
            </trkpt>
            <trkpt lon="101.614663" lat="14.816644">
                <ele>277.477661</ele>
                <time>2008-09-28T03:16:14Z</time>
            </trkpt>
            <trkpt lon="101.614602" lat="14.817183">
                <ele>277.477661</ele>
                <time>2008-09-28T03:16:57Z</time>
            </trkpt>
            <trkpt lon="101.614927" lat="14.817914">
                <ele>273.632446</ele>
                <time>2008-09-28T03:17:37Z</time>
            </trkpt>
            <trkpt lon="101.615177" lat="14.818816">
                <ele>268.825806</ele>
                <time>2008-09-28T03:18:05Z</time>
            </trkpt>
            <trkpt lon="101.615180" lat="14.819740">
                <ele>264.980591</ele>
                <time>2008-09-28T03:18:29Z</time>
            </trkpt>
            <trkpt lon="101.615161" lat="14.820678">
                <ele>262.577148</ele>
                <time>2008-09-28T03:18:48Z</time>
            </trkpt>
            <trkpt lon="101.615135" lat="14.821618">
                <ele>260.654541</ele>
                <time>2008-09-28T03:19:06Z</time>
            </trkpt>
            <trkpt lon="101.614890" lat="14.822211">
                <ele>259.693359</ele>
                <time>2008-09-28T03:19:32Z</time>
            </trkpt>
            <trkpt lon="101.614276" lat="14.822590">
                <ele>260.173950</ele>
                <time>2008-09-28T03:19:57Z</time>
            </trkpt>
            <trkpt lon="101.613333" lat="14.822516">
                <ele>266.903198</ele>
                <time>2008-09-28T03:20:43Z</time>
            </trkpt>
            <trkpt lon="101.612431" lat="14.822659">
                <ele>269.306519</ele>
                <time>2008-09-28T03:21:15Z</time>
            </trkpt>
            <trkpt lon="101.611694" lat="14.822159">
                <ele>275.555054</ele>
                <time>2008-09-28T03:21:50Z</time>
            </trkpt>
            <trkpt lon="101.610860" lat="14.821889">
                <ele>283.726196</ele>
                <time>2008-09-28T03:22:26Z</time>
            </trkpt>
            <trkpt lon="101.610804" lat="14.820952">
                <ele>288.532959</ele>
                <time>2008-09-28T03:22:59Z</time>
            </trkpt>
            <trkpt lon="101.610427" lat="14.820104">
                <ele>294.781372</ele>
                <time>2008-09-28T03:23:53Z</time>
            </trkpt>
            <trkpt lon="101.610951" lat="14.819308">
                <ele>292.378174</ele>
                <time>2008-09-28T03:24:14Z</time>
            </trkpt>
            <trkpt lon="101.610123" lat="14.818775">
                <ele>298.626709</ele>
                <time>2008-09-28T03:24:43Z</time>
            </trkpt>
            <trkpt lon="101.609103" lat="14.818731">
                <ele>305.355957</ele>
                <time>2008-09-28T03:25:18Z</time>
            </trkpt>
            <trkpt lon="101.608147" lat="14.818890">
                <ele>308.720459</ele>
                <time>2008-09-28T03:25:58Z</time>
            </trkpt>
            <trkpt lon="101.607995" lat="14.818155">
                <ele>318.333618</ele>
                <time>2008-09-28T03:31:53Z</time>
            </trkpt>
            <trkpt lon="101.607607" lat="14.817297">
                <ele>324.582275</ele>
                <time>2008-09-28T03:32:15Z</time>
            </trkpt>
            <trkpt lon="101.606893" lat="14.816909">
                <ele>331.311523</ele>
                <time>2008-09-28T03:32:40Z</time>
            </trkpt>
            <trkpt lon="101.606429" lat="14.816342">
                <ele>340.444092</ele>
                <time>2008-09-28T03:33:12Z</time>
            </trkpt>
            <trkpt lon="101.605592" lat="14.815909">
                <ele>344.770019</ele>
                <time>2008-09-28T03:33:38Z</time>
            </trkpt>
            <trkpt lon="101.605105" lat="14.815070">
                <ele>347.173218</ele>
                <time>2008-09-28T03:34:01Z</time>
            </trkpt>
            <trkpt lon="101.604716" lat="14.814214">
                <ele>351.499145</ele>
                <time>2008-09-28T03:34:24Z</time>
            </trkpt>
            <trkpt lon="101.603955" lat="14.814406">
                <ele>355.825195</ele>
                <time>2008-09-28T03:34:48Z</time>
            </trkpt>
            <trkpt lon="101.603167" lat="14.814313">
                <ele>361.593140</ele>
                <time>2008-09-28T03:35:16Z</time>
            </trkpt>
            <trkpt lon="101.603074" lat="14.813927">
                <ele>367.360962</ele>
                <time>2008-09-28T03:39:16Z</time>
            </trkpt>
        </trkseg>
    </trk>
</gpx>